Time;durP1;ratioP1;P1;durP2;ratioP2;P2;SDS_P1;SDS_P2;PMS_P1;PMS_P2;Temp;Humidity;BMP_temperature;BMP_pressure;BME280_temperature;BME280_humidity;BME280_pressure;Samples;Min_cycle;Max_cycle;Signal;HPM_P1;HPM_P2
2022/05/12 00:04:03;;;;;;;0.70;0.63;;;17.40;46.50;19.40;93991.00;;;;10476711;28;45820;-61
2022/05/12 00:09:24;;;;;;;0.77;0.57;;;17.40;46.50;19.40;94005.00;;;;10476535;28;45085;-62
2022/05/12 00:14:46;;;;;;;0.50;0.50;;;17.40;46.50;19.40;94007.00;;;;10476043;28;45379;-62
2022/05/12 00:20:09;;;;;;;0.70;0.50;;;17.40;46.50;19.50;93973.00;;;;10476299;28;45126;-61
2022/05/12 00:25:30;;;;;;;0.82;0.70;;;17.40;46.50;19.40;94006.00;;;;10483336;28;45267;-61
2022/05/12 00:30:56;;;;;;;1.15;0.70;;;17.40;46.50;19.40;94006.00;;;;10483269;28;45207;-61
2022/05/12 00:36:19;;;;;;;0.47;0.47;;;17.40;46.50;19.40;93986.00;;;;10482984;28;45766;-60
2022/05/12 00:41:40;;;;;;;0.77;0.70;;;17.40;46.50;19.40;94017.00;;;;10483412;28;45254;-61
2022/05/12 00:47:04;;;;;;;1.38;0.50;;;17.40;46.50;19.40;94007.00;;;;10482551;28;45096;-60
2022/05/12 00:52:29;;;;;;;0.70;0.50;;;17.30;46.40;19.40;94013.00;;;;10482392;28;45145;-62
2022/05/12 00:57:53;;;;;;;0.55;0.55;;;17.40;46.40;19.40;94022.00;;;;10481416;28;45188;-60
2022/05/12 01:03:20;;;;;;;0.77;0.57;;;17.40;46.30;19.40;94017.00;;;;10477463;28;46164;-61
2022/05/12 01:08:41;;;;;;;0.80;0.60;;;17.40;46.30;19.40;94007.00;;;;10481277;28;45192;-61
2022/05/12 01:14:05;;;;;;;0.88;0.70;;;17.30;46.20;19.40;94005.00;;;;10481765;28;45210;-61
2022/05/12 01:19:30;;;;;;;0.65;0.60;;;17.30;46.20;19.40;94026.00;;;;10481750;28;45178;-62
2022/05/12 01:24:52;;;;;;;0.77;0.77;;;17.30;46.20;19.40;94015.00;;;;10481383;28;45688;-61
2022/05/12 01:30:16;;;;;;;0.60;0.60;;;17.30;46.20;19.40;94030.00;;;;10481870;28;45212;-61
2022/05/12 01:35:37;;;;;;;0.60;0.55;;;17.30;46.10;19.40;94026.00;;;;10479653;28;45688;-61
2022/05/12 01:40:58;;;;;;;0.60;0.60;;;17.30;46.10;19.40;94033.00;;;;10481136;28;45186;-60
2022/05/12 01:46:19;;;;;;;0.80;0.70;;;17.30;46.10;19.40;94020.00;;;;10480069;28;45181;-62
2022/05/12 01:51:39;;;;;;;0.63;0.63;;;17.30;46.10;19.40;94025.00;;;;10481238;28;45384;-62
2022/05/12 01:57:01;;;;;;;0.73;0.50;;;17.30;46.10;19.40;94034.00;;;;10479655;28;45199;-61
2022/05/12 02:02:23;;;;;;;0.68;0.68;;;17.30;46.00;19.40;94033.00;;;;10480441;28;45218;-61
2022/05/12 02:07:46;;;;;;;0.60;0.60;;;17.30;46.10;19.40;94038.00;;;;10480005;28;45254;-61
2022/05/12 02:13:11;;;;;;;0.63;0.60;;;17.30;46.00;19.40;94044.00;;;;10479719;28;45923;-61
2022/05/12 02:18:31;;;;;;;1.23;0.60;;;17.30;46.00;19.40;94060.00;;;;10479589;28;45237;-62
2022/05/12 02:23:52;;;;;;;0.60;0.60;;;17.30;46.00;19.40;94069.00;;;;10480122;28;45807;-60
2022/05/12 02:29:14;;;;;;;1.30;0.70;;;17.30;46.00;19.40;94083.00;;;;10479561;28;45822;-61
2022/05/12 02:34:34;;;;;;;0.60;0.60;;;17.30;46.00;19.40;94076.00;;;;10479395;28;45672;-60
2022/05/12 02:39:55;;;;;;;0.75;0.68;;;17.30;46.00;19.30;94091.00;;;;10479442;28;45255;-62
2022/05/12 02:45:17;;;;;;;0.70;0.50;;;17.30;46.10;19.30;94072.00;;;;10477477;28;45156;-61
2022/05/12 02:50:38;;;;;;;0.63;0.50;;;17.30;46.00;19.30;94093.00;;;;10478976;28;45719;-61
2022/05/12 02:56:01;;;;;;;1.33;0.60;;;17.30;46.00;19.30;94091.00;;;;10478227;28;45147;-60
2022/05/12 03:01:23;;;;;;;0.55;0.50;;;17.30;46.00;19.30;94085.00;;;;10478513;28;45751;-61
2022/05/12 03:06:44;;;;;;;0.40;0.40;;;17.30;46.00;19.30;94082.00;;;;10477550;28;45129;-61
2022/05/12 03:12:05;;;;;;;0.60;0.43;;;17.30;46.00;19.30;94085.00;;;;10478067;28;45173;-61
2022/05/12 03:17:27;;;;;;;0.70;0.60;;;17.30;46.00;19.30;94076.00;;;;10477608;28;45129;-62
2022/05/12 03:22:48;;;;;;;1.60;0.70;;;17.20;45.90;19.30;94082.00;;;;10477713;28;45246;-62
2022/05/12 03:28:09;;;;;;;0.93;0.60;;;17.20;45.90;19.30;94092.00;;;;10477121;28;45243;-61
2022/05/12 03:33:31;;;;;;;1.33;0.70;;;17.30;45.90;19.30;94086.00;;;;10477600;28;45184;-61
2022/05/12 03:38:51;;;;;;;0.73;0.63;;;17.20;45.90;19.30;94092.00;;;;10476946;28;45239;-61
2022/05/12 03:49:59;;;;;;;0.77;0.50;;;17.20;45.90;19.30;94101.00;;;;10457891;28;45147;-62
2022/05/12 03:55:23;;;;;;;0.60;0.60;;;17.20;45.90;19.20;94092.00;;;;10477575;28;45742;-61
2022/05/12 04:00:44;;;;;;;0.60;0.50;;;17.20;45.90;19.30;94114.00;;;;10485014;28;45419;-62
2022/05/12 04:06:07;;;;;;;0.75;0.55;;;17.20;45.90;19.30;94111.00;;;;10483525;28;45236;-61
2022/05/12 04:11:28;;;;;;;0.57;0.50;;;17.20;45.80;19.30;94111.00;;;;10484527;28;45760;-61
2022/05/12 04:16:49;;;;;;;0.88;0.60;;;17.20;45.80;19.30;94118.00;;;;10483019;28;45180;-61
2022/05/12 04:22:11;;;;;;;1.10;0.50;;;17.20;45.80;19.30;94126.00;;;;10484035;28;45185;-61
2022/05/12 04:27:35;;;;;;;0.60;0.57;;;17.20;45.80;19.20;94118.00;;;;10483457;28;45100;-62
2022/05/12 04:35:09;;;;;;;0.55;0.50;;;17.20;45.80;19.30;94140.00;;;;10483150;28;45724;-61
2022/05/12 04:38:38;;;;;;;0.73;0.52;;;17.20;45.80;19.20;94141.00;;;;10481121;28;45155;-62
2022/05/12 04:43:58;;;;;;;0.63;0.63;;;17.20;45.80;19.20;94151.00;;;;10480192;28;45258;-61
2022/05/12 04:49:19;;;;;;;0.85;0.60;;;17.20;45.80;19.20;94141.00;;;;10482458;28;45668;-60
2022/05/12 04:54:41;;;;;;;0.70;0.57;;;17.20;45.80;19.20;94143.00;;;;10480614;28;45174;-61
2022/05/12 05:00:02;;;;;;;0.80;0.65;;;17.20;45.80;19.20;94153.00;;;;10478705;28;45700;-61
2022/05/12 05:05:23;;;;;;;0.73;0.55;;;17.20;45.80;19.20;94162.00;;;;10482756;28;45136;-61
2022/05/12 05:10:45;;;;;;;0.55;0.55;;;17.20;45.80;19.20;94164.00;;;;10481052;28;45118;-62
2022/05/12 05:16:06;;;;;;;0.82;0.57;;;17.20;45.70;19.20;94169.00;;;;10481788;28;45209;-61
2022/05/12 05:21:27;;;;;;;0.60;0.60;;;17.20;45.70;19.20;94184.00;;;;10482158;28;45166;-61
2022/05/12 05:26:48;;;;;;;0.80;0.60;;;17.20;45.60;19.20;94185.00;;;;10481290;28;45217;-62
2022/05/12 05:32:10;;;;;;;0.65;0.65;;;17.20;45.60;19.20;94189.00;;;;10480800;28;45179;-61
2022/05/12 05:37:31;;;;;;;1.10;0.65;;;17.20;45.70;19.20;94204.00;;;;10481434;28;45152;-61
2022/05/12 05:42:54;;;;;;;0.77;0.55;;;17.20;45.60;19.30;94215.00;;;;10477952;28;45298;-60
2022/05/12 05:48:15;;;;;;;0.73;0.52;;;17.20;45.60;19.30;94223.00;;;;10502031;22;45919;-59
2022/05/12 05:53:39;;;;;;;0.75;0.60;;;17.20;45.70;19.30;94216.00;;;;10490169;28;45898;-59
2022/05/12 05:59:01;;;;;;;0.50;0.50;;;17.20;45.70;19.30;94227.00;;;;10397741;28;45147;-59
2022/05/12 06:04:22;;;;;;;0.60;0.60;;;17.20;46.00;19.20;94229.00;;;;10392118;28;45205;-60
2022/05/12 06:09:43;;;;;;;1.30;0.50;;;17.20;46.00;19.20;94251.00;;;;10391134;28;45873;-60
2022/05/12 06:15:06;;;;;;;0.80;0.60;;;17.20;46.10;19.20;94225.00;;;;10396188;28;45235;-59
2022/05/12 06:20:27;;;;;;;0.50;0.50;;;17.20;46.10;19.20;94247.00;;;;10428041;28;45171;-59
2022/05/12 06:25:48;;;;;;;0.85;0.60;;;17.20;46.00;19.20;94258.00;;;;10436752;28;45164;-58
2022/05/12 06:31:10;;;;;;;0.60;0.60;;;17.20;46.70;19.20;94263.00;;;;10437500;28;45294;-58
2022/05/12 06:36:32;;;;;;;1.10;0.60;;;17.20;46.10;19.20;94263.00;;;;10436017;28;46410;-59
2022/05/12 06:41:52;;;;;;;0.88;0.43;;;17.20;46.10;19.30;94264.00;;;;10437095;28;45185;-61
2022/05/12 06:47:16;;;;;;;1.65;0.60;;;17.20;46.00;19.30;94246.00;;;;10436036;28;45860;-61
2022/05/12 06:52:37;;;;;;;1.08;0.50;;;17.30;46.00;19.30;94254.00;;;;10437192;28;45247;-61
2022/05/12 06:57:58;;;;;;;1.17;0.60;;;17.20;46.10;19.30;94264.00;;;;10436330;28;45172;-61
2022/05/12 07:03:20;;;;;;;1.35;0.70;;;17.20;46.20;19.30;94246.00;;;;10436504;28;45239;-61
2022/05/12 07:08:41;;;;;;;3.15;0.77;;;17.20;46.30;19.30;94257.00;;;;10433977;28;45192;-61
2022/05/12 07:14:02;;;;;;;1.02;0.88;;;17.20;46.30;19.30;94257.00;;;;10436520;28;45320;-61
2022/05/12 07:19:23;;;;;;;1.85;0.60;;;17.20;46.30;19.30;94259.00;;;;10434285;28;45206;-61
2022/05/12 07:31:00;;;;;;;1.13;0.70;;;17.30;46.50;19.30;94280.00;;;;10434989;28;45093;-61
2022/05/12 07:36:09;;;;;;;1.50;1.13;;;17.30;46.50;19.30;94275.00;;;;10435611;28;45797;-61
2022/05/12 07:41:31;;;;;;;2.22;0.85;;;17.20;46.90;19.30;94274.00;;;;10435763;28;45138;-62
2022/05/12 07:46:51;;;;;;;0.80;0.57;;;17.30;46.70;19.30;94258.00;;;;10434714;28;45779;-61
2022/05/12 07:52:14;;;;;;;0.60;0.60;;;17.30;46.70;19.30;94274.00;;;;10435247;28;45677;-61
2022/05/12 07:57:34;;;;;;;1.10;0.70;;;17.20;46.80;19.30;94291.00;;;;10432724;28;45206;-62
2022/05/12 08:02:56;;;;;;;1.55;0.80;;;17.30;46.90;19.30;94275.00;;;;10434245;28;45857;-61
2022/05/12 08:08:18;;;;;;;1.33;0.80;;;17.30;47.50;19.30;94303.00;;;;10433741;28;45708;-61
2022/05/12 08:13:39;;;;;;;0.82;0.60;;;17.20;47.20;19.20;94302.00;;;;10435088;28;45751;-61
2022/05/12 08:19:00;;;;;;;1.67;0.80;;;17.20;47.20;19.30;94297.00;;;;10434562;28;45728;-61
2022/05/12 08:24:22;;;;;;;3.70;0.80;;;17.20;47.50;19.30;94284.00;;;;10434224;28;45208;-61
2022/05/12 08:29:43;;;;;;;1.00;0.68;;;17.20;47.40;19.30;94297.00;;;;10434052;28;45220;-61
2022/05/12 08:35:05;;;;;;;2.83;0.70;;;17.20;47.20;19.30;94283.00;;;;10434198;28;45188;-61
2022/05/12 08:40:53;;;;;;;2.25;0.60;;;17.20;47.60;19.30;94290.00;;;;10433764;28;45217;-62
2022/05/12 08:46:18;;;;;;;1.23;0.50;;;17.20;47.20;19.30;94293.00;;;;10440377;28;45114;-61
2022/05/12 08:51:39;;;;;;;0.88;0.60;;;17.20;47.20;19.30;94292.00;;;;10440686;28;45871;-60
2022/05/12 08:57:06;;;;;;;1.10;0.65;;;17.20;47.30;19.30;94281.00;;;;10440502;28;45672;-61
2022/05/12 09:02:34;;;;;;;;;;;17.20;47.10;19.30;94304.00;;;;10440977;28;45091;-61
2022/05/12 09:08:05;;;;;;;1.88;0.70;;;17.20;47.20;19.30;94307.00;;;;10440178;28;45092;-61
2022/05/12 09:13:32;;;;;;;2.80;0.70;;;17.20;47.10;19.30;94305.00;;;;10440617;28;45709;-61
2022/05/12 09:18:54;;;;;;;1.15;0.50;;;17.20;47.30;19.30;94299.00;;;;10440309;28;45319;-61
2022/05/12 09:24:14;;;;;;;0.75;0.57;;;17.20;47.20;19.30;94298.00;;;;10439632;28;45118;-61
2022/05/12 09:29:46;;;;;;;1.35;0.60;;;17.20;47.20;19.30;94281.00;;;;10439378;28;45770;-61
2022/05/12 09:35:21;;;;;;;1.15;0.60;;;17.20;47.00;19.30;94276.00;;;;10438847;28;45760;-61
2022/05/12 09:40:41;;;;;;;0.80;0.50;;;17.20;47.10;19.30;94293.00;;;;10439044;28;45367;-62
2022/05/12 09:46:20;;;;;;;0.82;0.52;;;17.20;47.10;19.30;94297.00;;;;10436496;28;45149;-61
2022/05/12 09:51:41;;;;;;;1.65;0.52;;;17.20;47.10;19.30;94286.00;;;;10437753;28;45689;-61
2022/05/12 09:57:15;;;;;;;0.93;0.52;;;17.20;47.00;19.30;94296.00;;;;10421217;28;45868;-64
2022/05/12 10:08:22;;;;;;;1.13;0.60;;;17.30;47.20;19.40;94277.00;;;;10434630;28;45744;-63
2022/05/12 10:13:50;;;;;;;1.35;0.60;;;17.40;47.30;19.40;94284.00;;;;10436684;28;45747;-62
2022/05/12 10:19:22;;;;;;;1.90;0.60;;;17.40;47.40;19.30;94291.00;;;;10436938;28;45278;-61
2022/05/12 10:24:58;;;;;;;0.82;0.50;;;17.40;47.10;19.30;94272.00;;;;10436535;28;45176;-60
2022/05/12 10:30:38;;;;;;;1.05;0.50;;;17.40;46.90;19.40;94279.00;;;;10436860;28;45202;-61
2022/05/12 10:36:22;;;;;;;3.17;0.52;;;17.40;47.30;19.50;94274.00;;;;10436765;28;46127;-60
2022/05/12 10:41:59;;;;;;;1.45;0.60;;;17.50;47.20;19.50;94269.00;;;;10437265;28;45793;-60
2022/05/12 10:47:29;;;;;;;;;;;17.50;47.00;19.50;94266.00;;;;10436632;28;45516;-60
2022/05/12 10:53:02;;;;;;;2.55;0.60;;;17.50;47.20;19.50;94265.00;;;;10436753;28;45194;-60
2022/05/12 10:58:32;;;;;;;1.73;0.55;;;17.50;47.20;19.50;94262.00;;;;10434608;28;45145;-60
2022/05/12 11:03:59;;;;;;;1.70;0.50;;;17.50;47.60;19.50;94255.00;;;;10436625;28;45168;-60
2022/05/12 11:09:25;;;;;;;1.87;0.60;;;17.40;47.30;19.50;94254.00;;;;10435353;28;45243;-59
2022/05/12 11:14:55;;;;;;;0.87;0.50;;;17.40;47.20;19.50;94245.00;;;;10439918;28;45704;-60
2022/05/12 11:20:25;;;;;;;0.60;0.47;;;17.40;47.10;19.50;94240.00;;;;10458907;28;45149;-59
2022/05/12 11:26:03;;;;;;;1.65;0.50;;;17.40;47.10;19.50;94235.00;;;;10436782;28;45157;-59
2022/05/12 11:31:33;;;;;;;1.75;0.50;;;17.40;47.00;19.50;94233.00;;;;10422872;28;45872;-61
2022/05/12 11:36:56;;;;;;;1.90;0.77;;;17.40;47.00;19.50;94228.00;;;;10420079;28;45147;-61
2022/05/12 11:42:20;;;;;;;2.17;0.52;;;17.40;47.00;19.50;94222.00;;;;10436293;28;45215;-59
2022/05/12 11:48:16;;;;;;;1.70;0.60;;;17.40;47.00;19.50;94211.00;;;;10435667;28;45195;-61
2022/05/12 11:53:55;;;;;;;1.50;0.63;;;17.40;47.00;19.50;94196.00;;;;10434385;28;45155;-60
2022/05/12 11:59:44;;;;;;;1.20;0.55;;;17.40;46.90;19.50;94196.00;;;;10454692;28;45778;-60
2022/05/12 12:05:08;;;;;;;2.75;0.70;;;17.40;46.90;19.50;94196.00;;;;10448632;28;45389;-60
2022/05/12 12:10:36;;;;;;;0.75;0.50;;;17.40;46.90;19.50;94178.00;;;;10445856;28;45193;-60
2022/05/12 12:16:07;;;;;;;1.52;0.73;;;17.40;46.80;19.50;94187.00;;;;10448386;28;45099;-61
2022/05/12 12:22:23;;;;;;;2.22;0.70;;;17.50;46.90;19.50;94192.00;;;;10441848;28;45164;-61
2022/05/12 12:28:22;;;;;;;0.88;0.60;;;17.50;46.90;19.50;94186.00;;;;10439740;28;45459;-60
2022/05/12 12:34:11;;;;;;;2.83;0.70;;;17.50;46.80;19.50;94173.00;;;;10440769;28;45252;-60
2022/05/12 12:39:45;;;;;;;1.08;0.60;;;17.50;46.80;19.50;94177.00;;;;10440343;28;45697;-61
2022/05/12 12:45:12;;;;;;;1.15;0.70;;;17.50;46.80;19.60;94170.00;;;;10440482;28;45426;-61
2022/05/12 12:50:48;;;;;;;0.98;0.80;;;17.50;46.80;19.60;94159.00;;;;10440731;28;45226;-61
2022/05/12 12:56:32;;;;;;;1.02;0.63;;;17.50;46.80;19.60;94170.00;;;;10440117;28;45160;-61
2022/05/12 13:01:56;;;;;;;0.95;0.60;;;17.50;46.80;19.60;94160.00;;;;10440820;28;45189;-61
2022/05/12 13:07:28;;;;;;;1.20;0.70;;;17.50;46.80;19.60;94150.00;;;;10440170;28;45161;-61
2022/05/12 13:12:54;;;;;;;2.30;0.80;;;17.50;47.10;19.60;94149.00;;;;10440157;28;45117;-60
2022/05/12 13:18:24;;;;;;;1.92;0.70;;;17.60;46.80;19.60;94153.00;;;;10439722;28;45147;-59
2022/05/12 13:24:00;;;;;;;1.63;0.80;;;17.60;47.20;19.60;94143.00;;;;10440080;28;45146;-61
2022/05/12 13:29:28;;;;;;;3.15;0.77;;;17.60;47.30;19.60;94144.00;;;;10438991;28;45235;-60
2022/05/12 13:34:55;;;;;;;2.22;0.75;;;17.60;47.00;19.60;94151.00;;;;10439479;28;46050;-61
2022/05/12 13:40:55;;;;;;;0.95;0.60;;;17.60;47.70;19.60;94137.00;;;;10439653;28;45096;-61
2022/05/12 13:46:23;;;;;;;2.28;0.63;;;17.60;47.90;19.60;94143.00;;;;10438597;28;45402;-60
2022/05/12 13:51:54;;;;;;;1.42;0.80;;;17.60;47.90;19.60;94129.00;;;;10439244;28;45251;-61
2022/05/12 13:57:22;;;;;;;3.38;1.02;;;17.60;47.90;19.60;94121.00;;;;10438369;28;45203;-61
2022/05/12 14:02:45;;;;;;;1.38;0.70;;;17.60;47.90;19.60;94111.00;;;;10438665;28;45263;-60
2022/05/12 14:08:16;;;;;;;1.80;0.88;;;17.60;47.60;19.60;94115.00;;;;10438148;28;45160;-60
2022/05/12 14:19:35;;;;;;;1.20;0.70;;;17.60;47.60;19.70;94110.00;;;;10438011;28;45770;-61
2022/05/12 14:24:56;;;;;;;1.92;0.80;;;17.60;47.60;19.70;94097.00;;;;10438512;28;45132;-61
2022/05/12 14:30:19;;;;;;;2.90;0.93;;;17.60;47.50;19.70;94096.00;;;;10437514;28;45176;-61
2022/05/12 14:35:41;;;;;;;3.00;0.70;;;17.70;47.30;19.70;94082.00;;;;10435164;28;45285;-61
2022/05/12 14:41:02;;;;;;;1.50;0.75;;;17.70;47.30;19.70;94099.00;;;;10450047;28;45220;-61
2022/05/12 14:46:25;;;;;;;1.75;0.82;;;17.70;47.50;19.70;94092.00;;;;10434977;28;45843;-60
2022/05/12 14:51:45;;;;;;;1.98;0.88;;;17.70;47.40;19.70;94087.00;;;;10435634;28;45716;-61
2022/05/12 14:57:06;;;;;;;1.00;0.60;;;17.70;47.30;19.80;94074.00;;;;10433030;28;45806;-61
2022/05/12 15:02:32;;;;;;;0.75;0.55;;;17.70;47.20;19.80;94078.00;;;;10443452;28;45598;-62
2022/05/12 15:07:53;;;;;;;0.82;0.50;;;17.70;47.10;19.80;94092.00;;;;10456853;28;45870;-62
2022/05/12 15:13:14;;;;;;;1.25;0.60;;;17.80;47.10;19.80;94094.00;;;;10435840;28;45856;-63
2022/05/12 15:18:38;;;;;;;1.92;0.70;;;17.80;47.00;19.80;94100.00;;;;10435109;28;45236;-62
2022/05/12 15:23:58;;;;;;;1.95;0.93;;;17.80;47.00;19.80;94102.00;;;;10436003;28;45171;-61
2022/05/12 15:29:19;;;;;;;1.20;0.70;;;17.80;47.20;19.80;94114.00;;;;10433939;28;45585;-61
2022/05/12 15:34:40;;;;;;;2.15;0.90;;;17.80;47.20;19.80;94106.00;;;;10393358;28;45684;-62
2022/05/12 15:40:01;;;;;;;3.10;1.10;;;17.80;47.10;19.80;94121.00;;;;10425815;28;45395;-61
2022/05/12 15:45:22;;;;;;;1.20;0.90;;;17.80;47.20;19.80;94131.00;;;;10452618;28;45845;-60
2022/05/12 15:50:46;;;;;;;1.92;0.82;;;17.80;47.20;19.80;94144.00;;;;10434995;28;45207;-62
2022/05/12 15:56:06;;;;;;;2.45;0.85;;;17.70;47.10;19.80;94178.00;;;;10441391;28;45674;-62
2022/05/12 16:01:27;;;;;;;2.17;1.00;;;17.70;47.20;19.80;94173.00;;;;10442824;28;45705;-67
2022/05/12 16:06:49;;;;;;;1.83;0.80;;;17.80;47.50;19.80;94186.00;;;;10441903;28;45097;-62
2022/05/12 16:12:26;;;;;;;1.10;0.82;;;17.80;47.30;19.80;94190.00;;;;10439846;28;45167;-65
2022/05/12 16:17:47;;;;;;;1.42;0.70;;;17.80;47.80;19.90;94209.00;;;;10441240;28;45681;-64
2022/05/12 16:23:10;;;;;;;1.90;0.80;;;17.80;48.10;19.90;94255.00;;;;10441342;28;45096;-63
2022/05/12 16:28:39;;;;;;;1.83;0.85;;;17.80;48.40;19.90;94230.00;;;;10439204;28;45698;-62
2022/05/12 16:34:01;;;;;;;2.13;0.90;;;17.90;48.30;19.90;94199.00;;;;10441090;28;45913;-61
2022/05/12 16:39:24;;;;;;;1.25;0.70;;;17.80;48.40;19.90;94194.00;;;;10438749;28;46369;-62
2022/05/12 16:44:45;;;;;;;2.17;0.68;;;17.80;48.20;19.90;94170.00;;;;10436284;28;45673;-61
2022/05/12 16:50:07;;;;;;;3.42;1.00;;;17.80;48.00;19.90;94150.00;;;;10438441;28;45332;-61
2022/05/12 16:55:30;;;;;;;1.35;0.73;;;17.90;48.30;19.90;94130.00;;;;10437590;28;45410;-61
2022/05/12 17:00:51;;;;;;;1.58;0.90;;;17.80;48.30;19.90;94137.00;;;;10440486;28;45154;-62
2022/05/12 17:06:12;;;;;;;2.78;1.02;;;17.90;50.30;19.90;94130.00;;;;10438538;28;45224;-65
2022/05/12 17:11:34;;;;;;;3.63;1.00;;;17.90;49.20;19.90;94123.00;;;;10438741;28;45287;-62
2022/05/12 17:16:55;;;;;;;2.17;0.95;;;17.90;48.80;19.90;94123.00;;;;10436546;28;45231;-62
2022/05/12 17:22:16;;;;;;;2.00;0.90;;;17.90;48.80;19.90;94126.00;;;;10437948;28;46118;-62
2022/05/12 17:27:38;;;;;;;2.13;0.90;;;17.90;48.80;19.90;94124.00;;;;10437356;28;45219;-62
2022/05/12 17:32:59;;;;;;;1.98;1.05;;;17.90;48.80;19.90;94142.00;;;;10437142;28;45168;-62
2022/05/12 17:38:19;;;;;;;2.17;1.20;;;17.80;49.20;19.90;94140.00;;;;10438492;28;45183;-62
2022/05/12 17:43:42;;;;;;;1.65;0.90;;;17.90;48.60;19.90;94110.00;;;;10440082;28;45300;-62
2022/05/12 17:49:03;;;;;;;2.90;0.90;;;17.80;48.60;19.90;94107.00;;;;10438524;28;45180;-62
2022/05/12 17:54:24;;;;;;;4.93;0.90;;;17.80;48.60;19.90;94137.00;;;;10467383;22;45236;-63
2022/05/12 17:59:46;;;;;;;1.83;0.90;;;17.80;48.80;19.90;94161.00;;;;10523054;28;45159;-63
2022/05/12 18:05:09;;;;;;;0.88;0.73;;;17.80;48.70;19.80;94118.00;;;;10507429;28;45167;-63
2022/05/12 18:10:29;;;;;;;1.95;0.75;;;17.80;48.60;19.80;94133.00;;;;10481003;28;45688;-63
2022/05/12 18:15:54;;;;;;;1.40;0.80;;;17.70;48.60;19.80;94085.00;;;;10478530;28;45237;-63
2022/05/12 18:21:15;;;;;;;1.40;0.80;;;17.70;48.50;19.80;94126.00;;;;10477149;28;46168;-63
2022/05/12 18:26:39;;;;;;;2.35;0.90;;;17.70;48.50;19.80;94130.00;;;;10479399;28;45489;-63
2022/05/12 18:32:02;;;;;;;1.23;0.90;;;17.70;48.40;19.70;94140.00;;;;10480790;28;45858;-63
2022/05/12 18:37:24;;;;;;;1.80;0.80;;;17.70;48.40;19.70;94133.00;;;;10479839;28;45668;-63
2022/05/12 18:42:44;;;;;;;1.52;0.90;;;17.70;48.40;19.70;94151.00;;;;10479948;28;45271;-63
2022/05/12 18:48:07;;;;;;;3.10;0.95;;;17.60;48.30;19.70;94199.00;;;;10479612;28;45280;-64
2022/05/12 18:53:28;;;;;;;1.85;0.82;;;17.60;48.30;19.70;94203.00;;;;10479377;28;45201;-63
2022/05/12 18:58:49;;;;;;;1.60;0.90;;;17.60;48.30;19.70;94207.00;;;;10479269;28;45707;-63
2022/05/12 19:04:12;;;;;;;1.38;0.80;;;17.60;48.30;19.60;94180.00;;;;10479330;28;45970;-63
2022/05/12 19:09:32;;;;;;;2.00;0.88;;;17.60;48.30;19.60;94200.00;;;;10479370;28;45160;-63
2022/05/12 19:14:55;;;;;;;1.00;0.70;;;17.60;48.40;19.60;94187.00;;;;10479558;28;45409;-63
2022/05/12 19:20:21;;;;;;;1.45;0.75;;;17.60;48.30;19.60;94201.00;;;;10478549;28;45166;-63
2022/05/12 19:25:42;;;;;;;1.73;0.80;;;17.60;48.40;19.60;94192.00;;;;10478247;28;45131;-63
2022/05/12 19:31:04;;;;;;;1.13;0.90;;;17.50;48.40;19.60;94194.00;;;;10478068;28;45240;-63
2022/05/12 19:36:26;;;;;;;1.45;0.85;;;17.50;48.40;19.60;94213.00;;;;10477934;28;45147;-63
2022/05/12 19:41:46;;;;;;;1.50;1.00;;;17.50;48.40;19.60;94215.00;;;;10478568;28;45238;-63
2022/05/12 19:47:07;;;;;;;2.03;0.90;;;17.50;48.50;19.60;94225.00;;;;10477111;28;45186;-63
2022/05/12 19:52:29;;;;;;;3.08;1.10;;;17.50;48.50;19.60;94231.00;;;;10473317;28;45226;-64
2022/05/12 19:57:51;;;;;;;1.23;0.90;;;17.50;48.70;19.50;94226.00;;;;10477225;28;45166;-63
2022/05/12 20:03:12;;;;;;;1.35;0.73;;;17.50;48.60;19.50;94221.00;;;;10478114;28;45097;-63
2022/05/12 20:08:34;;;;;;;1.42;0.70;;;17.50;48.70;19.50;94233.00;;;;10477802;28;45385;-63
2022/05/12 20:13:55;;;;;;;1.55;0.80;;;17.50;48.70;19.50;94238.00;;;;10477548;28;45097;-63
2022/05/12 20:19:16;;;;;;;1.58;0.80;;;17.40;48.60;19.50;94263.00;;;;10477505;28;45487;-63
2022/05/12 20:24:38;;;;;;;1.08;0.70;;;17.50;48.70;19.50;94258.00;;;;10477112;28;45745;-63
2022/05/12 20:30:04;;;;;;;1.90;0.85;;;17.40;48.60;19.50;94272.00;;;;10476756;28;45100;-62
2022/05/12 20:35:24;;;;;;;0.85;0.65;;;17.40;48.60;19.50;94275.00;;;;10476996;28;45191;-63
2022/05/12 20:40:46;;;;;;;1.13;0.80;;;17.40;48.70;19.50;94284.00;;;;10481691;28;45163;-63
2022/05/12 20:46:07;;;;;;;1.15;0.80;;;17.40;48.70;19.50;94279.00;;;;10483823;28;45806;-63
2022/05/12 20:51:28;;;;;;;0.90;0.70;;;17.40;48.60;19.50;94276.00;;;;10484025;28;45247;-63
2022/05/12 20:56:49;;;;;;;1.05;0.70;;;17.40;48.70;19.50;94276.00;;;;10483275;28;45766;-63
2022/05/12 21:02:10;;;;;;;1.10;0.70;;;17.40;48.70;19.50;94269.00;;;;10483828;28;45795;-63
2022/05/12 21:07:31;;;;;;;1.42;0.80;;;17.40;48.70;19.50;94280.00;;;;10483052;28;45194;-63
2022/05/12 21:12:53;;;;;;;1.67;0.80;;;17.40;48.70;19.50;94279.00;;;;10483498;28;45172;-63
2022/05/12 21:18:14;;;;;;;1.50;0.60;;;17.40;48.70;19.40;94276.00;;;;10482803;28;45120;-64
2022/05/12 21:23:35;;;;;;;2.17;0.90;;;17.40;48.70;19.40;94273.00;;;;10482929;28;45850;-63
2022/05/12 21:28:57;;;;;;;0.93;0.68;;;17.40;48.80;19.40;94282.00;;;;10482612;28;45188;-62
2022/05/12 21:34:18;;;;;;;1.27;0.63;;;17.40;48.70;19.40;94304.00;;;;10482133;28;45330;-63
2022/05/12 21:39:39;;;;;;;1.05;0.80;;;17.40;48.90;19.40;94315.00;;;;10482439;28;45769;-63
2022/05/12 21:50:38;;;;;;;1.35;0.80;;;17.40;48.90;19.40;94322.00;;;;10478900;28;45190;-62
2022/05/12 21:56:04;;;;;;;1.35;1.00;;;17.40;49.00;19.40;94320.00;;;;10481219;28;45834;-63
2022/05/12 22:01:29;;;;;;;1.30;0.80;;;17.30;48.90;19.40;94326.00;;;;10481627;28;45150;-63
2022/05/12 22:06:53;;;;;;;1.08;0.80;;;17.30;48.90;19.40;94342.00;;;;10481157;28;45180;-63
2022/05/12 22:12:23;;;;;;;1.45;0.80;;;17.30;49.00;19.40;94335.00;;;;10481584;28;45121;-63
2022/05/12 22:17:44;;;;;;;1.13;0.70;;;17.30;49.00;19.40;94334.00;;;;10480762;28;45196;-62
2022/05/12 22:23:06;;;;;;;1.25;0.80;;;17.30;49.20;19.40;94333.00;;;;10480421;28;45443;-62
2022/05/12 22:28:26;;;;;;;1.02;0.82;;;17.30;49.10;19.40;94319.00;;;;10479899;28;45168;-63
2022/05/12 22:33:48;;;;;;;1.60;0.85;;;17.30;49.10;19.40;94328.00;;;;10480126;28;45159;-62
2022/05/12 22:39:09;;;;;;;1.33;0.80;;;17.30;49.20;19.40;94345.00;;;;10480045;28;45665;-61
2022/05/12 22:44:30;;;;;;;1.83;0.90;;;17.30;49.30;19.30;94339.00;;;;10479910;28;45147;-62
2022/05/12 22:49:52;;;;;;;1.38;0.70;;;17.30;49.20;19.30;94321.00;;;;10479425;28;45164;-61
2022/05/12 22:55:15;;;;;;;1.20;0.75;;;17.30;49.30;19.30;94322.00;;;;10479220;28;45095;-62
2022/05/12 23:00:37;;;;;;;0.95;0.70;;;17.30;49.30;19.30;94323.00;;;;10479424;28;45176;-61
2022/05/12 23:05:59;;;;;;;0.88;0.80;;;17.20;49.10;19.30;94332.00;;;;10478616;28;45230;-62
2022/05/12 23:11:20;;;;;;;1.15;0.80;;;17.30;49.20;19.30;94318.00;;;;10479135;28;45103;-62
2022/05/12 23:16:40;;;;;;;1.48;0.90;;;17.20;49.20;19.30;94321.00;;;;10478462;28;45153;-62
2022/05/12 23:22:02;;;;;;;1.63;0.80;;;17.30;49.20;19.30;94320.00;;;;10479233;28;45299;-62
2022/05/12 23:27:23;;;;;;;1.30;1.00;;;17.30;49.20;19.30;94318.00;;;;10478113;28;45243;-62
2022/05/12 23:32:43;;;;;;;1.02;0.80;;;17.20;49.20;19.30;94322.00;;;;10479178;28;45431;-62
2022/05/12 23:38:05;;;;;;;1.13;0.80;;;17.20;49.10;19.30;94320.00;;;;10477708;28;45179;-62
2022/05/12 23:43:26;;;;;;;1.20;0.80;;;17.20;49.00;19.30;94302.00;;;;10478312;28;45266;-61
2022/05/12 23:48:47;;;;;;;1.20;0.70;;;17.20;49.00;19.20;94307.00;;;;10477738;28;45177;-62
2022/05/12 23:54:09;;;;;;;1.40;0.90;;;17.20;49.10;19.30;94301.00;;;;10508869;22;45432;-63
2022/05/12 23:59:29;;;;;;;1.25;0.82;;;17.20;49.00;19.30;94291.00;;;;10519286;28;45438;-63
